createdAt,value
2023-04-12T00:00:15.494Z,19.35
2023-04-12T00:01:18.675Z,21.45
2023-04-12T00:02:21.131Z,18.40
2023-04-12T00:03:25.404Z,17.83
2023-04-12T00:04:28.803Z,18.23
2023-04-12T00:05:33.267Z,20.00
2023-04-12T00:06:36.294Z,20.13
2023-04-12T00:07:39.515Z,17.20
2023-04-12T00:08:42.847Z,17.25
2023-04-12T00:09:45.916Z,18.17
2023-04-12T00:10:49.297Z,16.77
2023-04-12T00:11:52.378Z,19.23
2023-04-12T00:12:54.497Z,19.02
2023-04-12T00:13:57.752Z,16.02
2023-04-12T00:15:01.386Z,15.98
2023-04-12T00:16:04.536Z,17.67
2023-04-12T00:17:06.743Z,19.08
2023-04-12T00:18:09.948Z,18.85
2023-04-12T00:19:11.947Z,15.50
2023-04-12T00:20:16.540Z,18.58
2023-04-12T00:21:19.762Z,17.73
2023-04-12T00:22:22.753Z,16.58
2023-04-12T00:23:24.929Z,16.48
2023-04-12T00:24:28.385Z,17.83
2023-04-12T00:25:30.729Z,18.25
2023-04-12T00:26:35.749Z,14.63
2023-04-12T00:27:39.277Z,17.13
2023-04-12T00:28:42.555Z,16.55
2023-04-12T00:29:44.527Z,13.73
2023-04-12T00:30:48.574Z,13.45
2023-04-12T00:31:50.650Z,14.63
2023-04-12T00:32:53.611Z,14.00
2023-04-12T00:33:55.888Z,15.10
2023-04-12T00:34:59.040Z,13.25
2023-04-12T00:36:01.087Z,13.35
2023-04-12T00:37:04.241Z,15.15
2023-04-12T00:38:10.645Z,12.85
2023-04-12T00:39:14.253Z,12.68
2023-04-12T00:40:16.547Z,12.73
2023-04-12T00:41:19.417Z,12.45
2023-04-12T00:42:22.932Z,15.60
2023-04-12T00:43:27.805Z,10.65
2023-04-12T00:44:29.671Z,12.82
2023-04-12T00:45:32.683Z,10.25
2023-04-12T00:46:35.573Z,9.85
2023-04-12T00:47:39.052Z,9.68
2023-04-12T00:48:41.531Z,9.65
2023-04-12T00:49:44.797Z,10.05
2023-04-12T00:50:47.560Z,9.18
2023-04-12T00:51:51.487Z,10.43
2023-04-12T00:52:59.835Z,10.45
2023-04-12T00:54:03.658Z,8.60
2023-04-12T00:55:07.296Z,8.85
2023-04-12T00:56:11.897Z,9.13
2023-04-12T00:57:14.037Z,8.90
2023-04-12T00:58:18.547Z,10.02
2023-04-12T00:59:20.701Z,8.57
2023-04-12T01:00:27.592Z,9.75
2023-04-12T01:01:29.619Z,7.93
2023-04-12T01:02:33.707Z,8.38
2023-04-12T01:03:43.281Z,8.25
2023-04-12T01:04:50.691Z,8.45
2023-04-12T01:06:04.384Z,7.97
2023-04-12T01:07:15.828Z,8.35
2023-04-12T01:08:26.044Z,9.20
2023-04-12T01:09:35.073Z,8.23
2023-04-12T01:10:43.865Z,11.65
2023-04-12T01:12:02.279Z,9.88
2023-04-12T01:13:14.393Z,8.77
2023-04-12T01:14:23.834Z,9.18
2023-04-12T01:15:26.783Z,9.43
2023-04-12T01:16:33.428Z,10.20
2023-04-12T01:17:40.249Z,11.15
2023-04-12T01:18:50.432Z,9.13
2023-04-12T01:19:57.931Z,9.48
2023-04-12T01:21:05.373Z,9.57
2023-04-12T01:22:13.748Z,10.52
2023-04-12T01:23:44.852Z,9.68
2023-04-12T01:24:53.044Z,11.52
2023-04-12T01:26:22.211Z,11.38
2023-04-12T01:27:36.415Z,11.15
2023-04-12T01:28:42.400Z,10.02
2023-04-12T01:29:49.978Z,11.93
2023-04-12T01:30:54.477Z,12.63
2023-04-12T01:31:59.594Z,10.80
2023-04-12T01:33:05.199Z,12.15
2023-04-12T01:34:08.630Z,12.25
2023-04-12T01:35:12.124Z,14.70
2023-04-12T01:36:21.072Z,12.38
2023-04-12T01:37:24.337Z,13.57
2023-04-12T01:38:27.318Z,13.55
2023-04-12T01:39:30.872Z,11.57
2023-04-12T01:40:33.257Z,14.02
2023-04-12T01:41:40.955Z,12.75
2023-04-12T01:42:44.464Z,12.32
2023-04-12T01:43:48.739Z,13.52
2023-04-12T01:44:51.628Z,11.40
2023-04-12T01:45:55.078Z,12.60
2023-04-12T01:46:57.387Z,11.82
2023-04-12T01:48:02.577Z,13.02
2023-04-12T01:49:04.871Z,13.40
2023-04-12T01:50:15.915Z,13.40
2023-04-12T01:51:24.019Z,11.80
2023-04-12T01:52:28.383Z,12.30
2023-04-12T01:53:35.457Z,11.98
2023-04-12T01:54:40.122Z,11.38
2023-04-12T01:55:45.838Z,10.57
2023-04-12T01:56:52.529Z,11.07
2023-04-12T01:57:57.977Z,12.00
2023-04-12T01:59:04.202Z,10.93
2023-04-12T02:00:10.832Z,10.30
2023-04-12T02:01:17.138Z,10.20
2023-04-12T02:02:19.394Z,9.10
2023-04-12T02:03:32.278Z,9.80
2023-04-12T02:04:37.739Z,10.02
2023-04-12T02:05:41.006Z,9.88
2023-04-12T02:06:43.772Z,10.85
2023-04-12T02:07:47.754Z,10.48
2023-04-12T02:08:57.601Z,11.05
2023-04-12T02:10:00.765Z,9.20
2023-04-12T02:11:08.527Z,9.43
2023-04-12T02:12:11.560Z,9.15
2023-04-12T02:13:14.997Z,10.35
2023-04-12T02:14:18.204Z,10.07
2023-04-12T02:15:21.367Z,10.00
2023-04-12T02:16:25.001Z,9.60
2023-04-12T02:17:29.844Z,8.43
2023-04-12T02:18:35.330Z,8.82
2023-04-12T02:19:37.486Z,8.40
2023-04-12T02:20:40.770Z,9.98
2023-04-12T02:21:44.196Z,9.23
2023-04-12T02:22:47.195Z,8.48
2023-04-12T02:23:50.290Z,8.07
2023-04-12T02:24:53.330Z,8.45
2023-04-12T02:25:55.467Z,9.27
2023-04-12T02:26:59.383Z,8.15
2023-04-12T02:28:02.320Z,8.48
2023-04-12T02:29:07.722Z,8.75
2023-04-12T02:30:11.484Z,8.60
2023-04-12T02:31:15.626Z,8.43
2023-04-12T02:32:18.460Z,9.55
2023-04-12T02:33:25.381Z,9.27
2023-04-12T02:34:34.230Z,9.45
2023-04-12T02:35:46.487Z,9.02
2023-04-12T02:36:51.423Z,9.70
2023-04-12T02:37:54.924Z,8.88
2023-04-12T02:38:59.022Z,8.95
2023-04-12T02:40:03.027Z,9.10
2023-04-12T02:41:07.159Z,8.73
2023-04-12T02:42:13.702Z,9.27
2023-04-12T02:43:16.504Z,9.55
2023-04-12T02:44:24.164Z,10.40
2023-04-12T02:45:45.872Z,11.13
2023-04-12T02:46:48.053Z,11.27
2023-04-12T02:47:52.270Z,11.60
2023-04-12T02:48:58.964Z,10.82
2023-04-12T02:50:12.433Z,11.73
2023-04-12T02:51:26.156Z,11.07
2023-04-12T02:52:30.071Z,10.88
2023-04-12T02:53:41.816Z,14.85
2023-04-12T02:54:54.636Z,15.88
2023-04-12T02:55:57.315Z,12.63
2023-04-12T02:57:03.836Z,11.15
2023-04-12T02:58:13.103Z,11.40
2023-04-12T02:59:25.978Z,14.07
2023-04-12T03:00:48.238Z,13.02
2023-04-12T03:01:53.090Z,13.50
2023-04-12T03:03:01.480Z,11.73
2023-04-12T03:04:06.620Z,14.75
2023-04-12T03:05:23.586Z,12.30
2023-04-12T03:06:28.007Z,14.30
2023-04-12T03:07:32.871Z,13.48
2023-04-12T03:08:36.150Z,12.00
2023-04-12T03:09:40.705Z,14.35
2023-04-12T03:10:43.862Z,12.05
2023-04-12T03:11:46.265Z,11.70
2023-04-12T03:12:49.896Z,10.93
2023-04-12T03:13:56.103Z,14.25
2023-04-12T03:15:01.243Z,12.40
2023-04-12T03:16:22.872Z,11.38
2023-04-12T03:17:31.102Z,10.52
2023-04-12T03:18:33.394Z,11.13
2023-04-12T03:19:36.870Z,11.10
2023-04-12T03:20:43.737Z,10.95
2023-04-12T03:21:48.480Z,11.77
2023-04-12T03:22:50.850Z,15.15
2023-04-12T03:23:54.161Z,15.00
2023-04-12T03:24:56.661Z,12.30
2023-04-12T03:26:02.218Z,14.18
2023-04-12T03:27:11.323Z,13.70
2023-04-12T03:28:14.838Z,11.25
2023-04-12T03:29:29.153Z,12.30
2023-04-12T03:30:34.150Z,12.23
2023-04-12T03:31:36.675Z,10.00
2023-04-12T03:32:43.812Z,11.02
2023-04-12T03:33:46.605Z,9.30
2023-04-12T03:35:00.858Z,12.52
2023-04-12T03:36:03.175Z,9.98
2023-04-12T03:37:08.148Z,10.43
2023-04-12T03:38:16.602Z,11.38
2023-04-12T03:39:20.332Z,9.63
2023-04-12T03:40:26.566Z,11.55
2023-04-12T03:41:34.999Z,12.13
2023-04-12T03:42:39.693Z,10.82
2023-04-12T03:43:51.700Z,10.10
2023-04-12T03:44:55.190Z,10.25
2023-04-12T03:46:21.033Z,15.68
2023-04-12T03:47:33.511Z,9.25
2023-04-12T03:48:43.821Z,11.43
2023-04-12T03:50:06.104Z,11.82
2023-04-12T03:51:31.126Z,10.00
2023-04-12T03:52:39.786Z,9.35
2023-04-12T03:53:42.922Z,10.65
2023-04-12T03:54:50.767Z,13.18
2023-04-12T03:56:04.161Z,10.75
2023-04-12T03:57:08.416Z,9.95
2023-04-12T03:58:16.543Z,13.73
2023-04-12T03:59:20.927Z,10.77
2023-04-12T04:00:37.584Z,11.57
2023-04-12T04:01:54.349Z,9.02
2023-04-12T04:03:03.412Z,10.15
2023-04-12T04:04:21.157Z,9.07
2023-04-12T04:05:33.748Z,12.68
2023-04-12T04:06:38.816Z,9.18
2023-04-12T04:08:04.943Z,9.77
2023-04-12T04:10:08.977Z,10.55
2023-04-12T04:11:14.826Z,9.05
2023-04-12T04:12:22.836Z,9.05
2023-04-12T04:13:29.156Z,9.40
2023-04-12T04:14:36.912Z,10.07
2023-04-12T04:15:40.971Z,10.57
2023-04-12T04:16:44.912Z,10.63
2023-04-12T04:17:49.279Z,11.98
2023-04-12T04:18:55.153Z,13.07
2023-04-12T04:19:59.871Z,10.30
2023-04-12T04:21:03.333Z,11.40
2023-04-12T04:22:10.184Z,12.57
2023-04-12T04:23:12.650Z,12.77
2023-04-12T04:24:18.831Z,12.93
2023-04-12T04:25:30.058Z,11.05
2023-04-12T04:26:38.427Z,14.70
2023-04-12T04:27:52.119Z,12.35
2023-04-12T04:29:01.695Z,14.32
2023-04-12T04:30:10.498Z,13.15
2023-04-12T04:31:18.517Z,13.73
2023-04-12T04:32:25.909Z,13.55
2023-04-12T04:33:36.202Z,18.35
2023-04-12T04:34:40.361Z,13.18
2023-04-12T04:35:49.983Z,16.95
2023-04-12T04:36:58.972Z,20.02
2023-04-12T04:38:03.082Z,13.82
2023-04-12T04:39:08.315Z,15.23
2023-04-12T04:40:15.333Z,15.35
2023-04-12T04:41:24.678Z,15.15
2023-04-12T04:42:33.037Z,14.75
2023-04-12T04:43:40.041Z,14.20
2023-04-12T04:44:42.732Z,14.10
2023-04-12T04:45:49.487Z,13.02
2023-04-12T04:47:13.056Z,13.43
2023-04-12T04:48:16.458Z,13.00
2023-04-12T04:49:27.180Z,14.32
2023-04-12T04:50:34.306Z,17.38
2023-04-12T04:51:38.970Z,12.73
2023-04-12T04:52:41.376Z,12.90
2023-04-12T04:53:52.047Z,15.05
2023-04-12T04:54:57.901Z,15.02
2023-04-12T04:56:05.753Z,15.68
2023-04-12T04:57:12.211Z,14.23
2023-04-12T04:58:18.649Z,15.60
2023-04-12T04:59:21.145Z,14.13
2023-04-12T05:00:39.301Z,17.05
2023-04-12T05:01:59.291Z,14.77
2023-04-12T05:03:02.171Z,14.50
2023-04-12T05:04:06.007Z,13.32
2023-04-12T05:05:16.729Z,13.00
2023-04-12T05:06:22.634Z,12.15
2023-04-12T05:07:25.874Z,13.15
2023-04-12T05:08:30.751Z,17.77
2023-04-12T05:09:34.033Z,14.98
2023-04-12T05:10:37.482Z,13.18
2023-04-12T05:11:39.895Z,14.60
2023-04-12T05:12:47.173Z,14.40
2023-04-12T05:13:50.442Z,14.10
2023-04-12T05:15:01.343Z,10.68
2023-04-12T05:16:15.970Z,11.98
2023-04-12T05:17:18.738Z,11.23
2023-04-12T05:18:23.062Z,11.38
2023-04-12T05:19:25.613Z,12.55
2023-04-12T05:20:30.263Z,11.82
2023-04-12T05:21:34.629Z,10.45
2023-04-12T05:22:37.963Z,12.48
2023-04-12T05:23:43.306Z,11.38
2023-04-12T05:25:20.928Z,10.90
2023-04-12T05:26:31.751Z,11.95
2023-04-12T05:27:36.165Z,12.20
2023-04-12T05:28:44.821Z,11.90
2023-04-12T05:29:48.871Z,12.05
2023-04-12T05:30:55.834Z,10.80
2023-04-12T05:32:06.646Z,12.27
2023-04-12T05:33:23.243Z,12.73
2023-04-12T05:34:29.500Z,15.57
2023-04-12T05:35:34.908Z,13.27
2023-04-12T05:36:38.850Z,11.50
2023-04-12T05:37:42.949Z,10.30
2023-04-12T05:38:45.797Z,13.35
2023-04-12T05:39:50.597Z,20.38
2023-04-12T05:40:54.332Z,15.55
2023-04-12T05:41:59.965Z,11.77
2023-04-12T05:43:03.646Z,14.75
2023-04-12T05:44:08.334Z,11.20
2023-04-12T05:45:12.716Z,11.15
2023-04-12T05:46:16.937Z,10.93
2023-04-12T05:47:25.724Z,12.73
2023-04-12T05:48:32.715Z,10.82
2023-04-12T05:49:36.898Z,23.45
2023-04-12T05:50:53.820Z,11.65
2023-04-12T05:51:58.176Z,10.95
2023-04-12T05:53:02.556Z,9.52
2023-04-12T05:54:07.471Z,8.77
2023-04-12T05:55:12.164Z,12.10
2023-04-12T05:56:17.158Z,11.88
2023-04-12T05:57:21.794Z,10.15
2023-04-12T05:58:27.406Z,11.60
2023-04-12T05:59:31.447Z,10.30
2023-04-12T06:00:34.331Z,12.48
2023-04-12T06:01:42.877Z,12.00
2023-04-12T06:02:45.659Z,13.18
2023-04-12T06:03:49.487Z,12.10
2023-04-12T06:04:52.807Z,12.77
2023-04-12T06:05:57.849Z,18.50
2023-04-12T06:07:01.831Z,16.88
2023-04-12T06:08:16.109Z,16.25
2023-04-12T06:09:19.888Z,17.80
2023-04-12T06:10:24.014Z,11.90
2023-04-12T06:11:29.857Z,15.05
2023-04-12T06:12:32.992Z,13.48
2023-04-12T06:13:43.951Z,12.10
2023-04-12T06:14:46.663Z,12.50
2023-04-12T06:15:50.193Z,12.77
2023-04-12T06:16:52.828Z,12.75
2023-04-12T06:17:56.543Z,11.30
2023-04-12T06:18:59.305Z,13.27
2023-04-12T06:20:06.011Z,12.93
2023-04-12T06:21:10.709Z,16.67
2023-04-12T06:22:13.838Z,13.52
2023-04-12T06:23:20.833Z,13.85
2023-04-12T06:24:25.432Z,12.35
2023-04-12T06:25:34.740Z,13.32
2023-04-12T06:26:40.441Z,13.75
2023-04-12T06:28:17.555Z,16.40
2023-04-12T06:29:26.223Z,12.40
2023-04-12T06:30:29.457Z,14.73
2023-04-12T06:31:32.597Z,13.18
2023-04-12T06:32:36.356Z,21.05
2023-04-12T06:33:46.071Z,22.70
2023-04-12T06:34:48.653Z,17.35
2023-04-12T06:35:53.839Z,15.50
2023-04-12T06:36:57.667Z,15.10
2023-04-12T06:38:01.119Z,16.10
2023-04-12T06:39:05.067Z,16.15
2023-04-12T06:40:09.281Z,17.00
2023-04-12T06:41:14.978Z,13.98
2023-04-12T06:42:17.992Z,15.90
2023-04-12T06:43:22.753Z,14.40
2023-04-12T06:44:26.361Z,13.70
2023-04-12T06:45:32.040Z,15.20
2023-04-12T06:46:34.761Z,13.55
2023-04-12T06:47:38.297Z,14.52
2023-04-12T06:48:41.394Z,13.95
2023-04-12T06:49:44.762Z,18.27
2023-04-12T06:50:47.515Z,18.45
2023-04-12T06:51:51.333Z,16.38
2023-04-12T06:52:55.439Z,15.15
2023-04-12T06:53:58.736Z,16.33
2023-04-12T06:55:00.956Z,16.48
2023-04-12T06:56:05.596Z,12.45
2023-04-12T06:57:09.242Z,14.57
2023-04-12T06:58:12.427Z,15.48
2023-04-12T06:59:16.012Z,16.42
2023-04-12T07:00:19.361Z,12.73
2023-04-12T07:01:47.688Z,15.93
2023-04-12T07:02:50.290Z,13.52
2023-04-12T07:03:53.613Z,13.93
2023-04-12T07:04:56.108Z,12.90
2023-04-12T07:06:07.538Z,14.98
2023-04-12T07:07:16.812Z,13.40
2023-04-12T07:08:20.594Z,13.93
2023-04-12T07:09:24.273Z,13.85
2023-04-12T07:10:26.694Z,13.57
2023-04-12T07:11:31.785Z,18.85
2023-04-12T07:12:34.488Z,36.75
2023-04-12T07:13:37.466Z,32.67
2023-04-12T07:14:42.392Z,17.58
2023-04-12T07:15:50.609Z,15.95
2023-04-12T07:16:54.054Z,29.42
2023-04-12T07:17:56.503Z,35.90
2023-04-12T07:19:05.411Z,20.05
2023-04-12T07:20:09.072Z,15.70
2023-04-12T07:21:14.395Z,15.40
2023-04-12T07:22:17.732Z,12.77
2023-04-12T07:23:21.549Z,10.98
2023-04-12T07:24:24.907Z,14.20
2023-04-12T07:25:27.114Z,12.48
2023-04-12T07:26:30.306Z,14.45
2023-04-12T07:27:32.772Z,11.02
2023-04-12T07:28:36.577Z,15.75
2023-04-12T07:29:39.754Z,17.90
2023-04-12T07:30:42.903Z,14.48
2023-04-12T07:31:45.737Z,12.63
2023-04-12T07:32:48.931Z,11.05
2023-04-12T07:33:52.677Z,12.60
2023-04-12T07:34:57.763Z,13.27
2023-04-12T07:36:01.028Z,10.55
2023-04-12T07:37:04.448Z,9.05
2023-04-12T07:38:07.984Z,12.95
2023-04-12T07:39:12.614Z,10.38
2023-04-12T07:40:16.367Z,10.85
2023-04-12T07:41:19.479Z,10.70
2023-04-12T07:42:22.757Z,10.70
2023-04-12T07:43:27.618Z,13.13
2023-04-12T07:44:31.560Z,8.93
2023-04-12T07:45:37.246Z,10.02
2023-04-12T07:46:41.948Z,14.90
2023-04-12T07:47:44.941Z,13.25
2023-04-12T07:48:52.237Z,9.77
2023-04-12T07:49:59.046Z,9.50
2023-04-12T07:51:02.464Z,13.30
2023-04-12T07:52:05.034Z,9.85
2023-04-12T07:53:21.466Z,12.15
2023-04-12T07:54:57.848Z,11.00
2023-04-12T07:55:59.963Z,8.77
2023-04-12T07:57:06.674Z,9.00
2023-04-12T07:58:09.845Z,10.40
2023-04-12T07:59:12.854Z,10.65
2023-04-12T08:00:18.106Z,9.55
2023-04-12T08:01:20.550Z,9.77
2023-04-12T08:02:26.067Z,12.90
2023-04-12T08:03:28.583Z,17.95
2023-04-12T08:04:31.702Z,8.90
2023-04-12T08:05:34.008Z,10.13
2023-04-12T08:06:37.625Z,7.97
2023-04-12T08:07:39.631Z,18.20
2023-04-12T08:08:42.521Z,10.68
2023-04-12T08:09:44.747Z,13.02
2023-04-12T08:10:49.332Z,9.20
2023-04-12T08:11:51.710Z,7.93
2023-04-12T08:12:54.887Z,6.93
2023-04-12T08:13:57.381Z,5.90
2023-04-12T08:15:01.764Z,6.90
2023-04-12T08:16:04.524Z,8.32
2023-04-12T08:17:07.718Z,8.05
2023-04-12T08:18:10.207Z,10.82
2023-04-12T08:19:16.374Z,9.50
2023-04-12T08:20:21.839Z,10.20
2023-04-12T08:21:34.960Z,10.57
2023-04-12T08:22:37.568Z,10.38
2023-04-12T08:23:40.790Z,8.38
2023-04-12T08:24:49.979Z,7.40
2023-04-12T08:26:03.105Z,6.43
2023-04-12T08:27:06.301Z,7.03
2023-04-12T08:28:09.271Z,6.50
2023-04-12T08:29:12.610Z,6.80
2023-04-12T08:30:15.730Z,6.25
2023-04-12T08:31:18.222Z,6.45
2023-04-12T08:32:21.721Z,8.98
2023-04-12T08:33:24.784Z,11.52
2023-04-12T08:34:27.818Z,7.75
2023-04-12T08:35:31.196Z,9.95
2023-04-12T08:36:34.372Z,8.35
2023-04-12T08:37:36.656Z,7.85
2023-04-12T08:38:45.787Z,8.18
2023-04-12T08:39:49.410Z,9.20
2023-04-12T08:40:54.957Z,9.02
2023-04-12T08:41:59.852Z,11.20
2023-04-12T08:43:03.489Z,9.73
2023-04-12T08:44:06.775Z,10.25
2023-04-12T08:45:11.796Z,10.20
2023-04-12T08:46:16.493Z,8.50
2023-04-12T08:47:19.569Z,7.72
2023-04-12T08:48:23.636Z,12.38
2023-04-12T08:49:25.611Z,10.85
2023-04-12T08:50:28.498Z,7.10
2023-04-12T08:51:32.235Z,7.70
2023-04-12T08:52:34.239Z,7.03
2023-04-12T08:53:37.137Z,6.15
2023-04-12T08:54:39.267Z,5.75
2023-04-12T08:55:44.904Z,9.02
2023-04-12T08:56:47.196Z,5.90
2023-04-12T08:57:55.107Z,6.13
2023-04-12T08:58:58.417Z,5.18
2023-04-12T09:00:01.359Z,6.97
2023-04-12T09:01:04.956Z,12.68
2023-04-12T09:02:07.001Z,6.90
2023-04-12T09:03:10.641Z,5.60
2023-04-12T09:04:14.951Z,8.77
2023-04-12T09:05:20.545Z,6.05
2023-04-12T09:06:22.501Z,5.88
2023-04-12T09:07:28.037Z,7.00
2023-04-12T09:08:29.978Z,5.93
2023-04-12T09:09:51.306Z,8.82
2023-04-12T09:10:54.896Z,5.65
2023-04-12T09:12:07.000Z,6.35
2023-04-12T09:13:11.495Z,9.88
2023-04-12T09:14:22.067Z,9.23
2023-04-12T09:15:25.125Z,6.32
2023-04-12T09:16:38.862Z,9.88
2023-04-12T09:17:42.707Z,6.50
2023-04-12T09:18:48.576Z,5.88
2023-04-12T09:19:51.974Z,6.40
2023-04-12T09:21:11.899Z,10.48
2023-04-12T09:22:14.709Z,5.30
2023-04-12T09:23:20.139Z,5.05
2023-04-12T09:24:24.501Z,4.32
2023-04-12T09:25:38.607Z,5.18
2023-04-12T09:26:41.939Z,4.93
2023-04-12T09:27:48.046Z,16.73
2023-04-12T09:30:53.532Z,5.38
2023-04-12T09:32:27.502Z,9.82
2023-04-12T09:33:35.818Z,14.55
2023-04-12T09:34:57.151Z,4.03
2023-04-12T09:36:03.237Z,2.90
2023-04-12T09:37:16.468Z,4.50
2023-04-12T09:38:18.886Z,4.28
2023-04-12T09:39:32.092Z,4.65
2023-04-12T09:40:36.373Z,4.40
2023-04-12T09:41:40.060Z,6.57
2023-04-12T09:42:51.994Z,5.90
2023-04-12T09:43:57.370Z,3.53
2023-04-12T09:45:01.849Z,4.70
2023-04-12T09:46:13.960Z,4.43
2023-04-12T09:47:17.373Z,11.18
2023-04-12T09:48:20.727Z,6.35
2023-04-12T09:49:38.986Z,5.90
2023-04-12T09:50:42.760Z,4.57
2023-04-12T09:51:51.822Z,4.50
2023-04-12T09:52:56.542Z,7.25
2023-04-12T09:54:01.448Z,3.70
2023-04-12T09:55:26.442Z,15.20
2023-04-12T09:56:32.444Z,6.07
2023-04-12T09:57:35.265Z,9.73
2023-04-12T09:58:40.284Z,4.40
2023-04-12T09:59:44.713Z,6.22
2023-04-12T10:00:48.576Z,6.38
2023-04-12T10:01:51.556Z,4.78
2023-04-12T10:02:57.198Z,4.47
2023-04-12T10:04:00.737Z,4.53
2023-04-12T10:05:11.085Z,4.80
2023-04-12T10:06:14.639Z,7.45
2023-04-12T10:07:16.896Z,4.43
2023-04-12T10:08:21.003Z,6.03
2023-04-12T10:09:23.873Z,2.90
2023-04-12T10:10:27.591Z,7.88
2023-04-12T10:11:30.323Z,7.05
2023-04-12T10:12:34.749Z,4.32
2023-04-12T10:13:38.622Z,2.55
2023-04-12T10:14:44.914Z,6.30
2023-04-12T10:15:47.576Z,5.68
2023-04-12T10:16:51.085Z,2.70
2023-04-12T10:17:55.301Z,4.18
2023-04-12T10:19:03.880Z,4.63
2023-04-12T10:20:08.005Z,4.00
2023-04-12T10:21:12.480Z,10.60
2023-04-12T10:22:19.651Z,3.63
2023-04-12T10:23:23.186Z,3.65
2023-04-12T10:24:27.629Z,2.90
2023-04-12T10:25:31.134Z,5.03
2023-04-12T10:26:35.571Z,3.28
2023-04-12T10:27:37.875Z,3.47
2023-04-12T10:28:41.215Z,2.70
2023-04-12T10:29:44.657Z,3.70
2023-04-12T10:30:49.607Z,8.27
2023-04-12T10:31:52.315Z,3.40
2023-04-12T10:33:19.595Z,2.63
2023-04-12T10:34:28.686Z,2.60
2023-04-12T10:35:31.373Z,2.43
2023-04-12T10:36:54.612Z,3.63
2023-04-12T10:38:01.046Z,2.70
2023-04-12T10:39:11.616Z,11.87
2023-04-12T10:40:19.186Z,5.33
2023-04-12T10:41:22.867Z,6.40
2023-04-12T10:42:27.257Z,8.53
2023-04-12T10:43:30.523Z,2.63
2023-04-12T10:44:33.770Z,5.97
2023-04-12T10:45:38.795Z,2.93
2023-04-12T10:46:53.833Z,11.70
2023-04-12T10:48:01.414Z,4.13
2023-04-12T10:49:09.180Z,4.63
2023-04-12T10:50:24.575Z,3.57
2023-04-12T10:51:28.801Z,7.97
2023-04-12T10:52:44.907Z,19.40
2023-04-12T10:53:47.333Z,7.70
2023-04-12T10:54:57.247Z,18.83
2023-04-12T10:55:59.580Z,6.60
2023-04-12T10:57:05.396Z,8.60
2023-04-12T10:58:51.909Z,15.23
2023-04-12T10:59:59.437Z,3.10
2023-04-12T11:01:12.484Z,5.00
2023-04-12T11:02:16.699Z,8.27
2023-04-12T11:03:28.440Z,3.50
2023-04-12T11:04:31.686Z,6.13
2023-04-12T11:06:12.682Z,4.63
2023-04-12T11:07:47.389Z,5.15
2023-04-12T11:09:18.634Z,8.93
2023-04-12T11:10:22.034Z,4.47
2023-04-12T11:11:27.536Z,3.95
2023-04-12T11:12:30.738Z,23.42
2023-04-12T11:13:36.048Z,6.70
2023-04-12T11:14:43.783Z,3.92
2023-04-12T11:15:46.113Z,3.35
2023-04-12T11:17:24.885Z,4.90
2023-04-12T11:18:28.289Z,4.35
2023-04-12T11:19:31.384Z,3.80
2023-04-12T11:20:34.583Z,5.43
2023-04-12T11:21:37.268Z,6.53
2023-04-12T11:22:41.440Z,3.22
2023-04-12T11:23:44.543Z,4.13
2023-04-12T11:24:49.623Z,35.53
2023-04-12T11:25:55.810Z,4.10
2023-04-12T11:29:13.831Z,3.80
2023-04-12T11:30:17.203Z,3.88
2023-04-12T11:31:20.610Z,3.33
2023-04-12T11:32:27.709Z,3.80
2023-04-12T11:33:34.449Z,3.93
2023-04-12T11:34:38.044Z,3.92
2023-04-12T11:35:44.692Z,3.13
2023-04-12T11:36:47.842Z,3.35
2023-04-12T11:37:51.305Z,4.35
2023-04-12T11:38:57.023Z,3.70
2023-04-12T11:39:59.575Z,3.70
2023-04-12T11:41:02.745Z,6.97
2023-04-12T11:42:05.025Z,6.53
2023-04-12T11:43:08.239Z,8.93
2023-04-12T11:44:10.251Z,3.83
2023-04-12T11:45:18.100Z,5.30
2023-04-12T11:46:20.931Z,3.80
2023-04-12T11:47:28.679Z,3.60
2023-04-12T11:48:31.111Z,4.27
2023-04-12T11:49:34.461Z,3.53
2023-04-12T11:50:43.131Z,3.83
2023-04-12T11:51:48.991Z,5.50
2023-04-12T11:52:52.918Z,4.20
2023-04-12T11:53:55.531Z,4.03
2023-04-12T11:55:01.978Z,4.50
2023-04-12T11:56:04.574Z,2.83
2023-04-12T11:57:07.667Z,3.40
2023-04-12T11:58:10.583Z,3.17
2023-04-12T11:59:12.574Z,4.33
2023-04-12T12:00:16.869Z,4.10
2023-04-12T12:01:19.990Z,5.70
2023-04-12T12:02:24.601Z,3.80
2023-04-12T12:03:30.365Z,4.80
2023-04-12T12:04:33.127Z,5.90
2023-04-12T12:05:38.499Z,4.70
2023-04-12T12:06:42.220Z,3.10
2023-04-12T12:07:45.351Z,3.73
2023-04-12T12:08:50.186Z,4.50
2023-04-12T12:09:53.664Z,3.40
2023-04-12T12:11:07.167Z,8.10
2023-04-12T12:12:12.263Z,3.33
2023-04-12T12:13:14.835Z,3.27
2023-04-12T12:14:20.314Z,2.93
2023-04-12T12:15:23.497Z,4.17
2023-04-12T12:16:27.992Z,2.80
2023-04-12T12:17:31.900Z,3.73
2023-04-12T12:18:40.106Z,4.67
2023-04-12T12:19:44.814Z,4.37
2023-04-12T12:20:50.952Z,3.87
2023-04-12T12:21:53.032Z,3.27
2023-04-12T12:22:56.115Z,5.00
2023-04-12T12:23:58.761Z,4.40
2023-04-12T12:25:02.392Z,3.70
2023-04-12T12:26:18.447Z,4.63
2023-04-12T12:27:24.613Z,3.67
2023-04-12T12:28:27.369Z,7.07
2023-04-12T12:29:36.703Z,3.30
2023-04-12T12:30:40.331Z,5.43
2023-04-12T12:31:47.615Z,4.10
2023-04-12T12:32:52.371Z,8.43
2023-04-12T12:34:00.265Z,5.73
2023-04-12T12:35:04.673Z,2.87
2023-04-12T12:36:07.645Z,4.33
2023-04-12T12:37:13.509Z,4.88
2023-04-12T12:38:16.856Z,3.08
2023-04-12T12:39:19.022Z,4.40
2023-04-12T12:40:31.613Z,6.95
2023-04-12T12:41:34.332Z,3.95
2023-04-12T12:42:44.710Z,19.25
2023-04-12T12:43:47.696Z,24.15
2023-04-12T12:44:50.180Z,4.07
2023-04-12T12:45:53.413Z,14.90
2023-04-12T12:47:03.366Z,8.40
2023-04-12T12:48:19.337Z,6.70
2023-04-12T12:49:23.040Z,6.13
2023-04-12T12:50:51.320Z,3.85
2023-04-12T12:52:01.407Z,8.48
2023-04-12T12:53:06.045Z,3.88
2023-04-12T12:54:08.068Z,3.53
2023-04-12T12:55:11.126Z,3.75
2023-04-12T12:56:14.221Z,7.47
2023-04-12T12:57:18.038Z,3.38
2023-04-12T12:58:21.419Z,5.13
2023-04-12T12:59:25.476Z,5.38
2023-04-12T13:00:30.021Z,17.13
2023-04-12T13:01:32.665Z,7.88
2023-04-12T13:02:36.009Z,6.57
2023-04-12T13:03:38.592Z,3.30
2023-04-12T13:04:43.937Z,13.25
2023-04-12T13:05:47.201Z,17.13
2023-04-12T13:06:50.580Z,9.30
2023-04-12T13:07:53.201Z,20.02
2023-04-12T13:08:56.491Z,5.60
2023-04-12T13:09:59.256Z,11.43
2023-04-12T13:11:02.348Z,4.43
2023-04-12T13:12:04.594Z,8.07
2023-04-12T13:13:07.600Z,6.85
2023-04-12T13:14:09.757Z,6.57
2023-04-12T13:15:22.063Z,6.60
2023-04-12T13:16:26.798Z,14.67
2023-04-12T13:17:30.689Z,3.10
2023-04-12T13:18:32.921Z,5.50
2023-04-12T13:19:36.282Z,3.83
2023-04-12T13:20:40.097Z,6.37
2023-04-12T13:21:43.230Z,5.17
2023-04-12T13:22:45.457Z,3.20
2023-04-12T13:23:48.659Z,3.73
2023-04-12T13:24:50.900Z,3.53
2023-04-12T13:25:54.061Z,3.33
2023-04-12T13:26:56.173Z,4.10
2023-04-12T13:27:59.062Z,2.97
2023-04-12T13:29:01.401Z,4.10
2023-04-12T13:30:05.143Z,4.28
2023-04-12T13:31:08.347Z,4.28
2023-04-12T13:32:10.778Z,2.83
2023-04-12T13:33:19.195Z,2.90
2023-04-12T13:34:23.606Z,3.50
2023-04-12T13:35:26.938Z,5.47
2023-04-12T13:36:31.001Z,5.43
2023-04-12T13:37:35.645Z,11.45
2023-04-12T13:38:41.763Z,8.27
2023-04-12T13:39:45.783Z,3.10
2023-04-12T13:40:51.850Z,4.53
2023-04-12T13:41:54.803Z,10.13
2023-04-12T13:42:57.984Z,4.03
2023-04-12T13:44:01.050Z,5.38
2023-04-12T13:45:04.639Z,3.53
2023-04-12T13:46:08.187Z,6.65
2023-04-12T13:47:11.192Z,5.15
2023-04-12T13:48:13.148Z,5.35
2023-04-12T13:49:16.163Z,33.75
2023-04-12T13:50:19.184Z,3.38
2023-04-12T13:51:22.028Z,4.25
2023-04-12T13:52:25.436Z,3.10
2023-04-12T13:53:28.260Z,3.63
2023-04-12T13:54:30.740Z,10.55
2023-04-12T13:55:33.740Z,4.35
2023-04-12T13:56:36.649Z,11.68
2023-04-12T13:57:39.580Z,7.30
2023-04-12T13:58:42.759Z,3.13
2023-04-12T13:59:45.829Z,6.75
2023-04-12T14:00:47.790Z,2.95
2023-04-12T14:01:51.000Z,5.40
2023-04-12T14:02:53.079Z,3.38
2023-04-12T14:03:56.974Z,6.55
2023-04-12T14:05:00.632Z,3.42
2023-04-12T14:06:02.769Z,23.98
2023-04-12T14:07:05.867Z,11.88
2023-04-12T14:08:09.382Z,3.20
2023-04-12T14:09:24.147Z,3.38
2023-04-12T14:10:26.969Z,6.35
2023-04-12T14:11:29.206Z,3.00
2023-04-12T14:12:32.709Z,2.70
2023-04-12T14:13:34.557Z,3.45
2023-04-12T14:14:37.863Z,3.83
2023-04-12T14:15:39.975Z,3.78
2023-04-12T14:16:43.104Z,3.60
2023-04-12T14:17:46.650Z,3.25
2023-04-12T14:18:48.621Z,4.00
2023-04-12T14:19:51.878Z,3.47
2023-04-12T14:20:54.802Z,2.83
2023-04-12T14:21:57.868Z,4.53
2023-04-12T14:23:01.238Z,6.07
2023-04-12T14:24:04.813Z,3.10
2023-04-12T14:25:09.314Z,5.27
2023-04-12T14:26:16.352Z,2.77
2023-04-12T14:27:18.822Z,3.00
2023-04-12T14:28:21.990Z,3.73